Time;durP1;ratioP1;P1;durP2;ratioP2;P2;SDS_P1;SDS_P2;PMS_P1;PMS_P2;Temp;Humidity;BMP_temperature;BMP_pressure;BME280_temperature;BME280_humidity;BME280_pressure;Samples;Min_cycle;Max_cycle;Signal;HPM_P1;HPM_P2
2024/04/14 00:01:17;;;;;;;;;;;;;;;13.39;100.00;98315.06;5434958;26;20035;-51
2024/04/14 00:03:42;;;;;;;;;;;;;;;13.30;100.00;98318.25;5450468;26;19937;-51
2024/04/14 00:06:07;;;;;;;;;;;;;;;13.24;100.00;98310.81;5440970;26;19929;-50
2024/04/14 00:08:32;;;;;;;;;;;;;;;13.32;100.00;98311.16;5432132;26;19985;-51
2024/04/14 00:10:58;;;;;;;;;;;;;;;13.24;100.00;98310.81;5432488;26;19943;-51
2024/04/14 00:13:23;;;;;;;;;;;;;;;13.27;100.00;98307.97;5430059;26;19973;-52
2024/04/14 00:15:48;;;;;;;;;;;;;;;13.31;100.00;98309.47;5439531;26;20002;-53
2024/04/14 00:18:13;;;;;;;;;;;;;;;13.23;100.00;98306.50;5439424;26;20070;-52
2024/04/14 00:20:39;;;;;;;;;;;;;;;13.24;100.00;98302.97;5437864;26;19936;-51
2024/04/14 00:23:04;;;;;;;;;;;;;;;13.49;100.00;98300.50;5432261;26;19929;-51
2024/04/14 00:25:29;;;;;;;;;;;;;;;13.13;100.00;98290.56;5427067;26;20019;-50
2024/04/14 00:27:54;;;;;;;;;;;;;;;13.05;100.00;98290.16;5444554;26;20003;-53
2024/04/14 00:30:20;;;;;;;;;;;;;;;13.15;100.00;98282.59;5445070;26;19933;-51
2024/04/14 00:32:47;;;;;;;;;;;;;;;12.98;100.00;98285.44;5443983;26;19962;-51
2024/04/14 00:35:12;;;;;;;;;;;;;;;12.97;100.00;98281.13;5442965;26;20036;-51
2024/04/14 00:37:37;;;;;;;;;;;;;;;12.99;100.00;98281.88;5438873;26;19928;-52
2024/04/14 00:40:03;;;;;;;;;;;;;;;13.03;100.00;98283.38;5449814;26;20014;-51
2024/04/14 00:42:28;;;;;;;;;;;;;;;13.14;100.00;98280.94;5435978;26;20283;-52
2024/04/14 00:44:53;;;;;;;;;;;;;;;13.03;100.00;98278.16;5442935;26;19937;-50
2024/04/14 00:47:19;;;;;;;;;;;;;;;13.06;100.00;98277.94;5440851;26;19943;-51
2024/04/14 00:49:44;;;;;;;;;;;;;;;13.07;100.00;98282.25;5435693;26;19965;-51
2024/04/14 00:52:10;;;;;;;;;;;;;;;13.00;100.00;98284.41;5441403;26;19936;-50
2024/04/14 00:54:35;;;;;;;;;;;;;;;12.97;100.00;98288.97;5442907;26;20295;-51
2024/04/14 00:57:01;;;;;;;;;;;;;;;12.80;100.00;98291.72;5435656;26;19958;-52
2024/04/14 00:59:26;;;;;;;;;;;;;;;12.52;100.00;98286.47;5437570;26;19940;-51
2024/04/14 01:01:52;;;;;;;;;;;;;;;12.63;100.00;98286.69;5432996;26;19965;-51
2024/04/14 01:04:17;;;;;;;;;;;;;;;12.72;100.00;98286.13;5442023;26;19943;-48
2024/04/14 01:06:42;;;;;;;;;;;;;;;12.67;100.00;98285.56;5436446;26;19966;-49
2024/04/14 01:09:08;;;;;;;;;;;;;;;12.54;100.00;98274.16;5440324;26;19928;-49
2024/04/14 01:11:33;;;;;;;;;;;;;;;12.47;100.00;98280.69;5440918;26;20385;-49
2024/04/14 01:14:02;;;;;;;;;;;;;;;12.38;100.00;98278.63;5439144;26;19944;-49
2024/04/14 01:16:29;;;;;;;;;;;;;;;12.50;100.00;98278.72;5446070;26;20476;-51
2024/04/14 01:18:54;;;;;;;;;;;;;;;12.45;100.00;98274.72;5437726;26;20536;-51
2024/04/14 01:21:19;;;;;;;;;;;;;;;12.41;100.00;98283.66;5440701;26;19944;-52
2024/04/14 01:23:44;;;;;;;;;;;;;;;12.40;100.00;98274.16;5443734;26;19959;-52
2024/04/14 01:26:09;;;;;;;;;;;;;;;12.23;100.00;98287.38;5432562;26;20239;-51
2024/04/14 01:28:35;;;;;;;;;;;;;;;12.35;100.00;98273.56;5441924;26;19968;-51
2024/04/14 01:31:00;;;;;;;;;;;;;;;12.27;100.00;98267.97;5444579;26;19970;-51
2024/04/14 01:33:25;;;;;;;;;;;;;;;12.25;100.00;98282.88;5444195;26;19987;-51
2024/04/14 01:35:50;;;;;;;;;;;;;;;12.23;100.00;98276.94;5435328;26;19928;-52
2024/04/14 01:38:16;;;;;;;;;;;;;;;12.19;100.00;98278.88;5419815;26;20025;-51
2024/04/14 01:40:41;;;;;;;;;;;;;;;12.23;100.00;98279.53;5443859;26;20287;-51
2024/04/14 01:43:06;;;;;;;;;;;;;;;12.22;100.00;98270.00;5443248;26;20374;-50
2024/04/14 01:45:31;;;;;;;;;;;;;;;12.27;100.00;98271.44;5441805;26;19972;-51
2024/04/14 01:47:56;;;;;;;;;;;;;;;12.16;100.00;98273.00;5444140;26;20180;-51
2024/04/14 01:50:22;;;;;;;;;;;;;;;11.98;100.00;98268.84;5452361;26;20007;-50
2024/04/14 01:52:47;;;;;;;;;;;;;;;12.18;100.00;98265.91;5442298;26;19960;-51
2024/04/14 01:55:13;;;;;;;;;;;;;;;11.80;100.00;98267.25;5441876;26;19989;-50
2024/04/14 01:57:38;;;;;;;;;;;;;;;11.82;100.00;98268.00;5449743;26;20018;-49
2024/04/14 02:00:03;;;;;;;;;;;;;;;11.71;100.00;98275.63;5434703;26;19957;-51
2024/04/14 02:02:29;;;;;;;;;;;;;;;12.08;100.00;98269.97;5435621;26;19968;-48
2024/04/14 02:04:54;;;;;;;;;;;;;;;11.93;100.00;98270.84;5435998;26;19977;-49
2024/04/14 02:07:21;;;;;;;;;;;;;;;11.87;100.00;98273.81;5437697;26;20345;-50
2024/04/14 02:09:46;;;;;;;;;;;;;;;11.98;100.00;98268.84;5444771;26;20037;-50
2024/04/14 02:12:11;;;;;;;;;;;;;;;11.63;100.00;98272.59;5443709;26;19943;-50
2024/04/14 02:14:37;;;;;;;;;;;;;;;11.88;100.00;98262.44;5441190;26;19970;-52
2024/04/14 02:17:02;;;;;;;;;;;;;;;11.75;100.00;98266.69;5445354;26;19958;-50
2024/04/14 02:19:27;;;;;;;;;;;;;;;11.83;100.00;98264.50;5437390;26;19995;-52
2024/04/14 02:21:52;;;;;;;;;;;;;;;11.83;100.00;98267.09;5442271;26;19990;-50
2024/04/14 02:24:18;;;;;;;;;;;;;;;11.61;100.00;98264.00;5439707;26;20295;-49
2024/04/14 02:26:43;;;;;;;;;;;;;;;11.56;100.00;98259.03;5436528;26;19999;-50
2024/04/14 02:29:08;;;;;;;;;;;;;;;11.58;100.00;98264.19;5443965;26;19993;-50
2024/04/14 02:31:33;;;;;;;;;;;;;;;11.44;100.00;98267.53;5443562;26;19943;-51
2024/04/14 02:33:58;;;;;;;;;;;;;;;11.64;100.00;98253.44;5436418;26;19976;-50
2024/04/14 02:36:27;;;;;;;;;;;;;;;11.67;100.00;98258.47;5440392;26;19964;-50
2024/04/14 02:38:52;;;;;;;;;;;;;;;11.37;100.00;98244.50;5434487;26;19986;-51
2024/04/14 02:41:17;;;;;;;;;;;;;;;11.47;100.00;98250.88;5437764;26;19940;-50
2024/04/14 02:43:44;;;;;;;;;;;;;;;11.48;100.00;98252.56;5443800;26;19929;-50
2024/04/14 02:46:09;;;;;;;;;;;;;;;11.42;100.00;98255.50;5448252;26;19967;-51
2024/04/14 02:48:35;;;;;;;;;;;;;;;11.37;100.00;98254.94;5443698;26;20007;-50
2024/04/14 02:51:00;;;;;;;;;;;;;;;11.50;100.00;98250.72;5447501;26;19959;-52
2024/04/14 02:53:28;;;;;;;;;;;;;;;11.39;100.00;98247.88;5451380;26;20050;-52
2024/04/14 02:55:53;;;;;;;;;;;;;;;11.15;100.00;98249.19;5448760;26;19964;-51
2024/04/14 02:58:18;;;;;;;;;;;;;;;11.26;100.00;98246.84;5430804;26;20428;-50
2024/04/14 03:00:43;;;;;;;;;;;;;;;11.19;100.00;98240.31;5441526;26;19973;-51
2024/04/14 03:03:08;;;;;;;;;;;;;;;11.32;100.00;98254.34;5440556;26;19936;-51
2024/04/14 03:05:34;;;;;;;;;;;;;;;11.33;100.00;98253.41;5444487;26;19943;-50
2024/04/14 03:07:59;;;;;;;;;;;;;;;11.36;100.00;98250.63;5441339;26;19960;-50
2024/04/14 03:10:24;;;;;;;;;;;;;;;11.50;100.00;98254.16;5437638;26;20047;-50
2024/04/14 03:12:50;;;;;;;;;;;;;;;11.34;100.00;98249.88;5447971;26;19929;-50
2024/04/14 03:15:15;;;;;;;;;;;;;;;10.94;100.00;98250.38;5447993;26;19997;-51
2024/04/14 03:17:40;;;;;;;;;;;;;;;11.08;100.00;98253.06;5443434;26;19981;-50
2024/04/14 03:20:06;;;;;;;;;;;;;;;11.38;100.00;98246.19;5435641;26;19973;-51
2024/04/14 03:22:32;;;;;;;;;;;;;;;11.25;100.00;98245.19;5442244;26;19965;-52
2024/04/14 03:24:57;;;;;;;;;;;;;;;11.09;100.00;98241.72;5443294;26;20355;-52
2024/04/14 03:27:22;;;;;;;;;;;;;;;11.14;100.00;98247.53;5443501;26;20050;-51
2024/04/14 03:29:48;;;;;;;;;;;;;;;11.13;100.00;98249.31;5441429;26;19958;-51
2024/04/14 03:32:13;;;;;;;;;;;;;;;10.97;100.00;98247.63;5429692;26;19980;-51
2024/04/14 03:34:39;;;;;;;;;;;;;;;10.90;100.00;98247.09;5439229;26;19928;-51
2024/04/14 03:37:07;;;;;;;;;;;;;;;10.59;100.00;98243.59;5443744;26;19958;-51
2024/04/14 03:39:32;;;;;;;;;;;;;;;11.02;100.00;98245.59;5451214;26;19992;-51
2024/04/14 03:41:57;;;;;;;;;;;;;;;10.92;100.00;98242.63;5447680;26;19929;-51
2024/04/14 03:44:23;;;;;;;;;;;;;;;11.08;100.00;98237.44;5447101;26;20064;-52
2024/04/14 03:46:48;;;;;;;;;;;;;;;10.96;100.00;98253.72;5450377;26;19967;-52
2024/04/14 03:49:13;;;;;;;;;;;;;;;10.98;100.00;98254.50;5432495;26;19974;-51
2024/04/14 03:51:39;;;;;;;;;;;;;;;10.74;100.00;98247.16;5434675;26;19960;-53
2024/04/14 03:54:04;;;;;;;;;;;;;;;10.70;100.00;98241.28;5447844;26;19971;-53
2024/04/14 03:56:29;;;;;;;;;;;;;;;10.94;100.00;98239.94;5443343;26;19993;-51
2024/04/14 03:58:55;;;;;;;;;;;;;;;11.20;100.00;98237.63;5434673;26;19935;-52
2024/04/14 04:01:20;;;;;;;;;;;;;;;10.81;100.00;98244.13;5450751;26;19932;-51
2024/04/14 04:03:45;;;;;;;;;;;;;;;10.76;100.00;98240.94;5449929;26;20265;-51
2024/04/14 04:06:11;;;;;;;;;;;;;;;10.68;100.00;98237.06;5435094;26;19975;-52
2024/04/14 04:08:36;;;;;;;;;;;;;;;10.63;100.00;98239.06;5437438;26;20009;-51
2024/04/14 04:11:02;;;;;;;;;;;;;;;10.83;100.00;98237.09;5434958;26;19929;-51
2024/04/14 04:13:28;;;;;;;;;;;;;;;10.65;100.00;98242.41;5437135;26;19986;-53
2024/04/14 04:16:03;;;;;;;;;;;;;;;10.58;100.00;98244.50;5436468;26;19959;-52
2024/04/14 04:18:29;;;;;;;;;;;;;;;10.65;100.00;98243.28;5432811;26;19977;-53
2024/04/14 04:20:55;;;;;;;;;;;;;;;10.49;100.00;98247.56;5439440;26;19967;-51
2024/04/14 04:23:21;;;;;;;;;;;;;;;10.65;100.00;98256.28;5438465;26;19976;-52
2024/04/14 04:25:46;;;;;;;;;;;;;;;10.59;100.00;98255.75;5440173;26;19983;-51
2024/04/14 04:28:11;;;;;;;;;;;;;;;10.59;100.00;98256.59;5441357;26;19936;-53
2024/04/14 04:30:37;;;;;;;;;;;;;;;10.59;100.00;98243.59;5432408;26;19948;-52
2024/04/14 04:33:02;;;;;;;;;;;;;;;10.54;100.00;98252.56;5434792;26;20239;-53
2024/04/14 04:35:27;;;;;;;;;;;;;;;10.41;100.00;98247.13;5442057;26;19965;-51
2024/04/14 04:37:52;;;;;;;;;;;;;;;10.60;100.00;98247.00;5440146;26;19969;-52
2024/04/14 04:40:17;;;;;;;;;;;;;;;10.51;100.00;98250.09;5445073;26;19958;-52
2024/04/14 04:42:43;;;;;;;;;;;;;;;10.77;100.00;98247.84;5444222;26;20278;-52
2024/04/14 04:45:08;;;;;;;;;;;;;;;10.63;100.00;98237.31;5445807;26;19943;-51
2024/04/14 04:47:33;;;;;;;;;;;;;;;10.63;100.00;98250.31;5452231;26;20022;-51
2024/04/14 04:49:58;;;;;;;;;;;;;;;10.65;100.00;98248.47;5435476;26;20353;-51
2024/04/14 04:52:24;;;;;;;;;;;;;;;10.57;100.00;98249.78;5445726;26;19933;-51
2024/04/14 04:54:49;;;;;;;;;;;;;;;10.47;100.00;98244.22;5452827;26;19989;-51
2024/04/14 04:57:14;;;;;;;;;;;;;;;10.73;100.00;98246.31;5450776;26;20261;-49
2024/04/14 04:59:39;;;;;;;;;;;;;;;10.65;100.00;98258.88;5444091;26;19990;-50
2024/04/14 05:02:05;;;;;;;;;;;;;;;10.61;100.00;98257.34;5442775;26;19973;-50
2024/04/14 05:04:31;;;;;;;;;;;;;;;10.94;100.00;98260.78;5432987;26;19936;-51
2024/04/14 05:06:58;;;;;;;;;;;;;;;10.77;100.00;98256.47;5445589;26;19967;-50
2024/04/14 05:09:24;;;;;;;;;;;;;;;10.95;100.00;98262.47;5433324;26;20011;-50
2024/04/14 05:11:49;;;;;;;;;;;;;;;11.12;100.00;98259.81;5446401;26;20378;-51
2024/04/14 05:14:14;;;;;;;;;;;;;;;11.14;100.00;98263.16;5437085;26;20397;-50
2024/04/14 05:16:40;;;;;;;;;;;;;;;11.35;100.00;98261.97;5434294;26;20012;-50
2024/04/14 05:19:05;;;;;;;;;;;;;;;11.55;100.00;98261.72;5438330;26;19970;-52
2024/04/14 05:21:30;;;;;;;;;;;;;;;11.12;100.00;98270.22;5431860;26;20320;-50
2024/04/14 05:23:55;;;;;;;;;;;;;;;11.56;100.00;98266.03;5438554;26;20004;-51
2024/04/14 05:26:21;;;;;;;;;;;;;;;11.72;100.00;98272.91;5442892;26;20062;-51
2024/04/14 05:28:46;;;;;;;;;;;;;;;11.44;100.00;98264.91;5439738;26;19963;-51
2024/04/14 05:31:11;;;;;;;;;;;;;;;11.75;100.00;98266.69;5434697;26;19943;-51
2024/04/14 05:33:36;;;;;;;;;;;;;;;11.97;100.00;98269.75;5435372;26;19943;-51
2024/04/14 05:36:01;;;;;;;;;;;;;;;12.05;100.00;98275.38;5436972;26;20060;-52
2024/04/14 05:38:27;;;;;;;;;;;;;;;12.52;100.00;98273.44;5439398;26;20318;-51
2024/04/14 05:40:53;;;;;;;;;;;;;;;12.74;100.00;98271.19;5434563;26;20283;-50
2024/04/14 05:43:18;;;;;;;;;;;;;;;13.27;100.00;98272.25;5446271;26;19935;-51
2024/04/14 05:45:43;;;;;;;;;;;;;;;13.09;100.00;98283.00;5434455;26;19928;-51
2024/04/14 05:48:08;;;;;;;;;;;;;;;13.58;98.15;98276.38;5437268;26;19975;-52
2024/04/14 05:50:35;;;;;;;;;;;;;;;13.51;98.12;98286.38;5444438;26;19929;-52
2024/04/14 05:53:00;;;;;;;;;;;;;;;13.91;98.12;98274.19;5434107;26;20339;-51
2024/04/14 05:55:25;;;;;;;;;;;;;;;13.66;99.15;98274.09;5433778;26;19994;-52
2024/04/14 05:57:51;;;;;;;;;;;;;;;14.02;99.41;98271.69;5442030;26;20539;-52
2024/04/14 06:00:16;;;;;;;;;;;;;;;14.08;100.00;98284.38;5441250;26;19929;-51
2024/04/14 06:02:41;;;;;;;;;;;;;;;14.66;97.92;98275.22;5440366;26;19966;-52
2024/04/14 06:05:07;;;;;;;;;;;;;;;14.65;96.61;98272.69;5436637;26;19969;-51
2024/04/14 06:07:32;;;;;;;;;;;;;;;14.81;96.14;98284.63;5451263;26;20343;-52
2024/04/14 06:09:57;;;;;;;;;;;;;;;14.75;96.05;98289.44;5444400;26;20603;-50
2024/04/14 06:12:22;;;;;;;;;;;;;;;14.80;97.13;98284.72;5439301;26;19975;-52
2024/04/14 06:14:47;;;;;;;;;;;;;;;14.71;97.14;98288.81;5446386;26;20009;-51
2024/04/14 06:17:13;;;;;;;;;;;;;;;15.26;95.25;98296.34;5445401;26;19988;-52
2024/04/14 06:19:38;;;;;;;;;;;;;;;15.23;95.67;98292.13;5439164;26;20276;-51
2024/04/14 06:22:03;;;;;;;;;;;;;;;15.57;94.89;98294.06;5434631;26;19997;-50
2024/04/14 06:24:28;;;;;;;;;;;;;;;15.95;93.84;98288.72;5436411;26;20369;-51
2024/04/14 06:26:53;;;;;;;;;;;;;;;15.96;90.60;98285.94;5441985;26;19936;-53
2024/04/14 06:29:19;;;;;;;;;;;;;;;16.33;89.31;98282.28;5436283;26;19999;-51
2024/04/14 06:31:45;;;;;;;;;;;;;;;15.85;87.91;98291.16;5445724;26;19964;-53
2024/04/14 06:34:10;;;;;;;;;;;;;;;15.73;89.93;98296.44;5442030;26;19987;-52
2024/04/14 06:36:35;;;;;;;;;;;;;;;16.10;88.47;98283.16;5448404;26;19963;-52
2024/04/14 06:39:00;;;;;;;;;;;;;;;15.60;90.28;98296.50;5443326;26;19996;-51
2024/04/14 06:41:26;;;;;;;;;;;;;;;16.60;88.26;98305.69;5444960;26;20039;-51
2024/04/14 06:43:51;;;;;;;;;;;;;;;16.61;85.97;98286.31;5445774;26;19928;-52
2024/04/14 06:46:16;;;;;;;;;;;;;;;18.16;80.68;98301.91;5439786;26;19995;-51
2024/04/14 06:48:41;;;;;;;;;;;;;;;18.96;74.66;98293.34;5437753;26;19929;-51
2024/04/14 06:51:07;;;;;;;;;;;;;;;19.79;71.33;98292.19;5450543;26;19929;-51
2024/04/14 06:53:32;;;;;;;;;;;;;;;19.60;71.51;98295.63;5451610;26;19987;-51
2024/04/14 06:56:00;;;;;;;;;;;;;;;19.69;70.95;98292.16;5442565;26;20007;-52
2024/04/14 06:58:25;;;;;;;;;;;;;;;19.73;70.93;98296.22;5449177;26;20013;-51
2024/04/14 07:00:50;;;;;;;;;;;;;;;20.02;69.61;98299.75;5439821;26;19936;-51
2024/04/14 07:03:16;;;;;;;;;;;;;;;19.87;69.47;98293.19;5441172;26;20066;-51
2024/04/14 07:05:41;;;;;;;;;;;;;;;19.61;71.58;98297.31;5448751;26;19928;-51
2024/04/14 07:08:06;;;;;;;;;;;;;;;20.04;71.12;98281.94;5445368;26;19928;-53
2024/04/14 07:10:32;;;;;;;;;;;;;;;19.98;71.07;98294.88;5445348;26;20373;-52
2024/04/14 07:12:57;;;;;;;;;;;;;;;20.65;71.29;98298.41;5446742;26;19939;-51
2024/04/14 07:15:22;;;;;;;;;;;;;;;21.36;69.01;98289.84;5439382;26;19971;-51
2024/04/14 07:17:47;;;;;;;;;;;;;;;20.97;68.36;98281.22;5451375;26;20281;-51
2024/04/14 07:20:13;;;;;;;;;;;;;;;20.60;70.95;98292.69;5440046;26;19959;-51
2024/04/14 07:22:38;;;;;;;;;;;;;;;20.90;71.73;98292.53;5444635;26;19959;-50
2024/04/14 07:25:03;;;;;;;;;;;;;;;21.19;70.35;98294.09;5442663;26;19968;-50
2024/04/14 07:27:28;;;;;;;;;;;;;;;20.68;69.39;98288.38;5447740;26;19966;-51
2024/04/14 07:29:55;;;;;;;;;;;;;;;20.59;71.00;98294.47;5444088;26;20475;-52
2024/04/14 07:32:21;;;;;;;;;;;;;;;21.04;70.34;98300.84;5444335;26;19967;-52
2024/04/14 07:34:46;;;;;;;;;;;;;;;21.36;67.56;98298.66;5445620;26;20010;-51
2024/04/14 07:37:12;;;;;;;;;;;;;;;21.31;67.44;98287.66;5444199;26;19953;-51
2024/04/14 07:39:37;;;;;;;;;;;;;;;22.37;65.89;98304.63;5448591;26;19974;-50
2024/04/14 07:42:04;;;;;;;;;;;;;;;23.12;60.77;98294.28;5449441;26;19995;-50
2024/04/14 07:44:29;;;;;;;;;;;;;;;23.02;61.13;98291.75;5436357;26;19975;-50
2024/04/14 07:46:54;;;;;;;;;;;;;;;24.34;59.25;98293.66;5440914;26;20239;-50
2024/04/14 07:49:20;;;;;;;;;;;;;;;24.72;58.64;98295.72;5445057;26;20331;-50
2024/04/14 07:51:45;;;;;;;;;;;;;;;25.89;56.27;98296.63;5445277;26;20343;-50
2024/04/14 07:54:10;;;;;;;;;;;;;;;28.14;50.80;98287.34;5444918;26;20047;-51
2024/04/14 07:56:37;;;;;;;;;;;;;;;27.60;51.43;98291.38;5437442;26;19929;-51
2024/04/14 07:59:04;;;;;;;;;;;;;;;28.21;51.07;98290.94;5447089;26;19960;-51
2024/04/14 08:01:29;;;;;;;;;;;;;;;29.11;49.40;98292.88;5443945;26;19936;-51
2024/04/14 08:03:55;;;;;;;;;;;;;;;29.74;48.36;98288.16;5440010;26;19928;-52
2024/04/14 08:06:20;;;;;;;;;;;;;;;29.26;47.77;98293.59;5441107;26;20399;-51
2024/04/14 08:08:46;;;;;;;;;;;;;;;29.06;48.15;98295.31;5446610;26;20047;-51
2024/04/14 08:11:11;;;;;;;;;;;;;;;29.84;45.25;98285.09;5450811;26;19995;-51
2024/04/14 08:13:37;;;;;;;;;;;;;;;29.49;47.41;98283.41;5444854;26;19986;-52
2024/04/14 08:16:02;;;;;;;;;;;;;;;28.37;47.95;98285.34;5439844;26;19936;-51
2024/04/14 08:18:27;;;;;;;;;;;;;;;28.64;47.68;98281.94;5441646;26;20341;-51
2024/04/14 08:20:59;;;;;;;;;;;;;;;27.43;49.21;98282.72;5439582;26;19944;-51
2024/04/14 08:23:24;;;;;;;;;;;;;;;28.67;45.97;98274.34;5433623;26;19944;-52
2024/04/14 08:25:50;;;;;;;;;;;;;;;30.26;43.68;98282.16;5437500;26;19968;-51
2024/04/14 08:28:15;;;;;;;;;;;;;;;32.40;39.82;98279.25;5443446;26;19973;-51
2024/04/14 08:30:40;;;;;;;;;;;;;;;31.30;41.00;98276.91;5446407;26;19972;-51
2024/04/14 08:33:05;;;;;;;;;;;;;;;30.52;41.72;98277.66;5439974;26;19968;-51
2024/04/14 08:35:30;;;;;;;;;;;;;;;31.88;40.92;98282.16;5449796;26;19999;-51
2024/04/14 08:37:56;;;;;;;;;;;;;;;33.58;37.60;98285.31;5441432;26;19929;-51
2024/04/14 08:40:21;;;;;;;;;;;;;;;33.38;38.15;98282.84;5449976;26;19929;-51
2024/04/14 08:42:46;;;;;;;;;;;;;;;34.72;36.47;98281.59;5445203;26;19928;-51
2024/04/14 08:45:14;;;;;;;;;;;;;;;33.77;37.66;98281.63;5441313;26;19984;-51
2024/04/14 08:47:41;;;;;;;;;;;;;;;32.96;38.93;98280.94;5446701;26;19962;-52
2024/04/14 08:50:07;;;;;;;;;;;;;;;33.57;38.74;98287.22;5435520;26;19962;-51
2024/04/14 08:52:33;;;;;;;;;;;;;;;33.22;38.28;98283.41;5449052;26;19970;-52
2024/04/14 08:54:58;;;;;;;;;;;;;;;34.39;38.00;98281.28;5441930;26;19988;-51
2024/04/14 08:57:26;;;;;;;;;;;;;;;35.57;37.18;98283.69;5439438;26;19929;-51
2024/04/14 08:59:54;;;;;;;;;;;;;;;32.13;39.29;98273.13;5436802;26;19964;-50
2024/04/14 09:02:19;;;;;;;;;;;;;;;29.71;42.99;98271.63;5444435;26;20335;-50
2024/04/14 09:04:47;;;;;;;;;;;;;;;29.47;45.12;98266.69;5443071;26;19939;-50
2024/04/14 09:07:12;;;;;;;;;;;;;;;28.65;43.49;98259.47;5445472;26;19960;-49
2024/04/14 09:09:37;;;;;;;;;;;;;;;29.11;45.19;98264.19;5440731;26;20289;-50
2024/04/14 09:12:03;;;;;;;;;;;;;;;29.74;43.72;98271.19;5440173;26;20242;-49
2024/04/14 09:14:28;;;;;;;;;;;;;;;29.66;42.56;98268.69;5450634;26;19928;-50
2024/04/14 09:16:53;;;;;;;;;;;;;;;30.00;42.65;98255.19;5450444;26;19994;-51
2024/04/14 09:19:18;;;;;;;;;;;;;;;29.58;43.25;98256.25;5441353;26;19968;-51
2024/04/14 09:21:44;;;;;;;;;;;;;;;28.52;44.96;98254.00;5453449;26;19936;-50
2024/04/14 09:24:09;;;;;;;;;;;;;;;28.70;45.00;98257.03;5448764;26;20502;-51
2024/04/14 09:26:34;;;;;;;;;;;;;;;28.91;43.51;98262.38;5447375;26;20275;-52
2024/04/14 09:29:06;;;;;;;;;;;;;;;29.93;43.26;98257.03;5447715;26;20283;-52
2024/04/14 09:31:32;;;;;;;;;;;;;;;29.54;42.67;98256.84;5446824;26;20409;-51
2024/04/14 09:33:57;;;;;;;;;;;;;;;30.83;42.37;98263.66;5444108;26;19959;-52
2024/04/14 09:36:26;;;;;;;;;;;;;;;31.17;41.01;98266.13;5449849;26;19929;-51
2024/04/14 09:38:54;;;;;;;;;;;;;;;31.24;41.07;98257.03;5444569;26;19936;-51
2024/04/14 09:41:23;;;;;;;;;;;;;;;29.50;42.82;98255.56;5440660;26;19963;-52
2024/04/14 09:43:51;;;;;;;;;;;;;;;29.51;42.64;98250.00;5445810;26;19974;-51
2024/04/14 09:46:21;;;;;;;;;;;;;;;29.94;42.33;98251.47;5452878;26;19966;-52
2024/04/14 09:48:46;;;;;;;;;;;;;;;30.96;41.50;98252.91;5446346;26;19933;-51
2024/04/14 09:51:14;;;;;;;;;;;;;;;28.81;42.09;98251.16;5443842;26;19928;-51
2024/04/14 09:53:40;;;;;;;;;;;;;;;28.74;42.93;98244.91;5442580;26;20217;-51
2024/04/14 09:56:06;;;;;;;;;;;;;;;28.21;43.64;98248.09;5441415;26;19940;-52
2024/04/14 09:58:31;;;;;;;;;;;;;;;28.13;43.98;98246.34;5440415;26;20016;-51
2024/04/14 10:00:58;;;;;;;;;;;;;;;28.29;44.36;98234.56;5449216;26;19935;-53
2024/04/14 10:03:25;;;;;;;;;;;;;;;28.79;43.20;98237.13;5445156;26;19936;-52
2024/04/14 10:05:50;;;;;;;;;;;;;;;28.07;44.38;98232.91;5445069;26;20429;-51
2024/04/14 10:08:17;;;;;;;;;;;;;;;29.19;44.02;98233.72;5440487;26;19929;-53
2024/04/14 10:10:42;;;;;;;;;;;;;;;30.34;42.38;98231.75;5442763;26;19968;-51
2024/04/14 10:13:08;;;;;;;;;;;;;;;30.70;41.06;98231.41;5451429;26;19994;-52
2024/04/14 10:15:33;;;;;;;;;;;;;;;30.92;41.80;98238.22;5447888;26;20224;-51
2024/04/14 10:18:05;;;;;;;;;;;;;;;30.91;42.30;98229.31;5442714;26;19932;-50
2024/04/14 10:20:39;;;;;;;;;;;;;;;31.48;42.49;98236.69;5452539;26;19937;-51
2024/04/14 10:23:05;;;;;;;;;;;;;;;31.84;41.51;98232.44;5439870;26;19978;-51
2024/04/14 10:25:31;;;;;;;;;;;;;;;31.79;40.28;98225.00;5438395;26;19936;-51
2024/04/14 10:27:56;;;;;;;;;;;;;;;32.72;40.20;98216.97;5447656;26;20285;-52
2024/04/14 10:30:22;;;;;;;;;;;;;;;32.53;39.88;98222.53;5451462;26;19964;-52
2024/04/14 10:32:48;;;;;;;;;;;;;;;32.13;40.21;98216.53;5441510;26;19988;-52
2024/04/14 10:35:16;;;;;;;;;;;;;;;32.59;40.44;98222.47;5444338;26;19928;-52
2024/04/14 10:37:51;;;;;;;;;;;;;;;31.44;42.16;98213.94;5443506;26;19928;-51
2024/04/14 10:40:17;;;;;;;;;;;;;;;32.62;40.58;98205.84;5442497;26;19937;-53
2024/04/14 10:42:42;;;;;;;;;;;;;;;32.67;39.50;98208.69;5446970;26;20411;-53
2024/04/14 10:45:08;;;;;;;;;;;;;;;32.58;39.82;98215.44;5445262;26;19994;-51
2024/04/14 10:47:33;;;;;;;;;;;;;;;32.56;40.65;98205.91;5432909;26;20004;-51
2024/04/14 10:49:58;;;;;;;;;;;;;;;32.35;40.92;98204.38;5447293;26;19964;-51
2024/04/14 10:52:23;;;;;;;;;;;;;;;33.21;39.82;98199.94;5438621;26;20250;-52
2024/04/14 10:54:49;;;;;;;;;;;;;;;33.44;39.59;98205.50;5440504;26;20266;-51
2024/04/14 10:57:14;;;;;;;;;;;;;;;32.52;40.50;98193.88;5435612;26;19977;-51
2024/04/14 10:59:40;;;;;;;;;;;;;;;32.19;40.53;98196.81;5443256;26;19928;-51
2024/04/14 11:02:05;;;;;;;;;;;;;;;31.88;41.63;98191.38;5438964;26;20217;-51
2024/04/14 11:04:31;;;;;;;;;;;;;;;32.00;41.08;98195.06;5445427;26;20298;-50
2024/04/14 11:06:56;;;;;;;;;;;;;;;32.16;41.26;98183.78;5449085;26;19936;-51
2024/04/14 11:09:22;;;;;;;;;;;;;;;31.97;42.02;98184.72;5438304;26;19965;-51
2024/04/14 11:11:48;;;;;;;;;;;;;;;31.16;41.89;98175.66;5445410;26;19936;-52
2024/04/14 11:14:17;;;;;;;;;;;;;;;30.54;43.55;98175.31;5446238;26;19928;-51
2024/04/14 11:16:43;;;;;;;;;;;;;;;30.93;43.98;98188.78;5449632;26;20056;-51
2024/04/14 11:19:09;;;;;;;;;;;;;;;30.48;44.85;98168.09;5442085;26;20344;-50
2024/04/14 11:21:35;;;;;;;;;;;;;;;31.09;43.42;98172.16;5447318;26;19936;-51
2024/04/14 11:24:01;;;;;;;;;;;;;;;30.97;43.91;98163.13;5448560;26;19930;-51
2024/04/14 11:26:27;;;;;;;;;;;;;;;31.86;42.78;98161.16;5447360;26;20467;-50
2024/04/14 11:28:53;;;;;;;;;;;;;;;31.66;44.01;98162.28;5440864;26;19982;-51
2024/04/14 11:31:18;;;;;;;;;;;;;;;31.84;43.42;98162.41;5443844;26;20027;-51
2024/04/14 11:33:51;;;;;;;;;;;;;;;31.77;43.62;98160.81;5444623;26;19939;-50
2024/04/14 11:36:16;;;;;;;;;;;;;;;31.73;43.62;98166.59;5441665;26;19978;-51
2024/04/14 11:38:41;;;;;;;;;;;;;;;31.08;44.17;98154.38;5450794;26;20365;-51
2024/04/14 11:41:07;;;;;;;;;;;;;;;32.38;43.11;98150.03;5434782;26;19986;-50
2024/04/14 11:43:32;;;;;;;;;;;;;;;31.23;43.66;98146.91;5443729;26;19929;-52
2024/04/14 11:45:57;;;;;;;;;;;;;;;31.69;43.12;98151.91;5447531;26;20290;-51
2024/04/14 11:48:26;;;;;;;;;;;;;;;31.87;43.39;98152.03;5446717;26;19978;-50
2024/04/14 11:50:52;;;;;;;;;;;;;;;32.26;43.33;98151.78;5446778;26;19939;-50
2024/04/14 11:53:17;;;;;;;;;;;;;;;31.58;42.67;98140.16;5444198;26;20407;-50
2024/04/14 11:55:42;;;;;;;;;;;;;;;32.06;43.88;98145.69;5443602;26;19962;-50
2024/04/14 11:58:08;;;;;;;;;;;;;;;32.42;43.44;98150.44;5445765;26;19935;-50
2024/04/14 12:00:33;;;;;;;;;;;;;;;30.99;44.62;98150.28;5438452;26;19965;-51
2024/04/14 12:02:59;;;;;;;;;;;;;;;31.32;44.50;98135.69;5442092;26;19940;-51
2024/04/14 12:05:24;;;;;;;;;;;;;;;32.19;43.51;98140.22;5443510;26;19928;-51
2024/04/14 12:07:49;;;;;;;;;;;;;;;31.51;43.71;98134.78;5448176;26;19931;-51
2024/04/14 12:10:16;;;;;;;;;;;;;;;30.74;44.72;98133.16;5441521;26;19990;-51
2024/04/14 12:12:41;;;;;;;;;;;;;;;31.39;44.67;98125.72;5445083;26;19940;-50
2024/04/14 12:15:06;;;;;;;;;;;;;;;31.74;44.54;98129.75;5446024;26;20036;-50
2024/04/14 12:17:32;;;;;;;;;;;;;;;31.74;44.06;98124.34;5447880;26;19936;-51
2024/04/14 12:19:57;;;;;;;;;;;;;;;31.83;44.04;98123.88;5442578;26;20348;-51
2024/04/14 12:22:22;;;;;;;;;;;;;;;31.47;43.48;98120.13;5431430;26;20286;-50
2024/04/14 12:24:47;;;;;;;;;;;;;;;31.71;43.78;98118.59;5444952;26;19936;-51
2024/04/14 12:27:13;;;;;;;;;;;;;;;31.80;43.74;98118.91;5438536;26;19928;-52
2024/04/14 12:29:38;;;;;;;;;;;;;;;32.83;43.27;98121.88;5435454;26;19960;-50
2024/04/14 12:32:03;;;;;;;;;;;;;;;32.30;42.88;98109.88;5448061;26;19967;-50
2024/04/14 12:34:29;;;;;;;;;;;;;;;31.60;44.65;98102.03;5437544;26;20020;-50